Cedarfalls, Iowa
Current Conditions -  °F | °C
As of 1:54 PM on Friday 31 Oct 2014 (Local Time) from KALO Reporting Station
Clear Clear  
Wind Chill: 32°   Ceiling: Unl
Heat Index: 41°   Visibility: 10mi
Dew Point: 20°   Wind: 17mph
Humidity: 43%   Direction: 350°N
Pressure: 30.44"   Gusts: NA
Location:  42.5035°N, 92.4936°W
Report Text: KALO 311854Z 35015KT 10SM CLR 05/M07 A3044 RMK AO2 PK WND 01026/1826 SLP315 T00501067
Loading
Personal Weather Stations






























Interactive Weather Map
Tropical Storm Tracking
New forecast layout! Learn more

10-Day Weather Forecast

Advertisements
Track Severe Weather on mobile